Pagrindinis puslapis
METAR-TAF:

METAR-TAF

Oro uostai :

Teheranas, Iranas

platuma: 35-41N, ilguma: 051-21E, Aukštis: 1204 m

Dabartinis oras

Ataskaita buvo paskelbta 33 minutes, ne 10:00 UTC
Vėjas 16 kt iš Vakarų
Temperatūra 10°C
Drėgmė 40%
Slėgis 1015 hPa
Matomumas 10 km arba daugiau
Mažai debesys ne aukštis 3500 ft

METAR: OIII 091000Z 28016KT 9999 FEW035 10/M03 Q1015 A2998

Laikas: 14:03 (10:33 UTC)

Prognozė

Ataskaita buvo paskelbta 5 valandos ir 13 minutes, ne 05:20 UTC
Prognozė galioja nuo 09 metu 06 UTC su 10 metu 12 UTC
Vėjas 6 kt iš Vakarų
Matomumas: 8000 m
Mažai debesys ne aukštis 3500 ft
Išsisklaidę debesys ne aukštis 9000 ft
Laikinai
nuo 09 metu 06 UTC su 09 metu 12 UTC
Vėjas 16 kt iš Vakarų

TAF: OIII 090520Z 0906/1012 28006KT 8000 FEW035 SCT090 TEMPO 0906/0912 28016KT

Orai ataskaitas ir orų prognozės (METAR, TAF).

turimą stotys yra geltonos ir raudonos taškus žemėlapyje.

Perkelti pele per norėdami pamatyti stoties vardą.

Tada spustelėkite, norėdami matyti oro stebėjimo ir prognozės.

Norėdami pakeisti žemėlapį: spustelėkite ant žalios mygtukų su juodo kryžiaus žemyn,; žalią mygtuką su brūkšneliu, jei norite nutolinti; arba žalių rodyklių gretimoms žemėlapius.


METAR-TAF: